Reserve, New Mexico
Current Conditions -  °F | °C
As of 9:54 PM on Sunday 21 Dec 2014 (Local Time) from KSJN Reporting Station
Clear Clear  
Wind Chill: 32°   Ceiling: Unl
Heat Index: 37°   Visibility: 10mi
Dew Point: 31°   Wind: 7mph
Humidity: 79%   Direction: 190°S
Pressure: 30.03"   Gusts: NA
Location:  33.71°N, 108.76°W
Report Text: KSJN 220454Z AUTO 19006KT 10SM CLR 03/M01 A3003 RMK AO2 SLP156 T00281006
Loading
Personal Weather Stations






























Interactive Weather Map New forecast layout! Learn more

10-Day Weather Forecast

Advertisements
Track Severe Weather on mobile